Time;durP1;ratioP1;P1;durP2;ratioP2;P2;SDS_P1;SDS_P2;PMS_P1;PMS_P2;Temp;Humidity;BMP_temperature;BMP_pressure;BME280_temperature;BME280_humidity;BME280_pressure;Samples;Min_cycle;Max_cycle;Signal;HPM_P1;HPM_P2
2021/10/06 00:01:34;;;;;;;6.47;5.87;;;16.60;99.90;;;;;;6253723;28;20481;-64
2021/10/06 00:04:38;;;;;;;6.57;5.63;;;16.70;99.90;;;;;;6255633;28;20474;-64
2021/10/06 00:07:41;;;;;;;6.80;6.23;;;16.60;99.90;;;;;;6255343;28;20477;-65
2021/10/06 00:10:46;;;;;;;7.10;6.20;;;16.60;99.90;;;;;;6254845;28;20489;-65
2021/10/06 00:13:50;;;;;;;6.87;5.83;;;16.60;99.90;;;;;;6254704;28;20482;-65
2021/10/06 00:16:53;;;;;;;5.90;5.40;;;16.60;99.90;;;;;;6254720;28;20481;-65
2021/10/06 00:19:56;;;;;;;8.07;5.90;;;16.60;99.90;;;;;;6254521;28;20471;-65
2021/10/06 00:22:59;;;;;;;7.63;6.10;;;16.60;99.90;;;;;;6254594;28;20475;-65
2021/10/06 00:26:05;;;;;;;7.70;6.90;;;16.60;99.90;;;;;;6254676;28;20475;-64
2021/10/06 00:29:08;;;;;;;6.87;6.10;;;16.70;99.90;;;;;;6254257;28;20532;-65
2021/10/06 00:32:11;;;;;;;8.03;5.67;;;16.60;99.90;;;;;;6253779;28;20475;-65
2021/10/06 00:35:15;;;;;;;6.57;5.90;;;16.60;99.90;;;;;;6254151;28;20537;-65
2021/10/06 00:38:18;;;;;;;6.40;5.80;;;16.60;99.90;;;;;;6253938;28;20490;-65
2021/10/06 00:41:22;;;;;;;7.10;6.40;;;16.60;99.90;;;;;;6253959;28;20514;-65
2021/10/06 00:44:25;;;;;;;6.60;6.00;;;16.50;99.90;;;;;;6249404;28;20471;-65
2021/10/06 00:47:29;;;;;;;7.13;6.17;;;16.50;99.90;;;;;;6253977;28;20565;-65
2021/10/06 00:50:32;;;;;;;10.90;5.77;;;16.50;99.90;;;;;;6253467;28;20969;-65
2021/10/06 00:53:35;;;;;;;6.83;6.23;;;16.50;99.90;;;;;;6253474;28;20793;-65
2021/10/06 00:56:40;;;;;;;8.73;5.50;;;16.40;99.90;;;;;;6253523;28;20462;-64
2021/10/06 00:59:43;;;;;;;6.90;6.10;;;16.50;99.90;;;;;;6253118;28;20475;-64
2021/10/06 01:02:46;;;;;;;6.50;5.80;;;16.50;99.90;;;;;;6252863;28;20485;-64
2021/10/06 01:05:50;;;;;;;8.60;6.10;;;16.50;99.90;;;;;;6253508;28;20977;-65
2021/10/06 01:08:53;;;;;;;7.17;6.47;;;16.40;99.90;;;;;;6253177;28;20555;-64
2021/10/06 01:11:59;;;;;;;7.53;5.53;;;16.40;99.90;;;;;;6252600;28;20487;-64
2021/10/06 01:15:03;;;;;;;9.77;6.00;;;16.40;99.90;;;;;;6252840;28;20951;-64
2021/10/06 01:18:06;;;;;;;7.47;5.00;;;16.40;99.90;;;;;;6253033;28;20920;-65
2021/10/06 01:21:12;;;;;;;7.17;6.47;;;16.30;99.90;;;;;;6252879;28;20540;-65
2021/10/06 01:24:15;;;;;;;6.57;5.97;;;16.30;99.90;;;;;;6253115;28;20475;-66
2021/10/06 01:27:19;;;;;;;7.37;6.50;;;16.30;99.90;;;;;;6252461;28;20977;-66
2021/10/06 01:30:22;;;;;;;6.80;6.20;;;16.20;99.90;;;;;;6252079;28;20498;-66
2021/10/06 01:33:25;;;;;;;7.97;5.77;;;16.20;99.90;;;;;;6252864;28;20471;-66
2021/10/06 01:36:30;;;;;;;6.83;5.77;;;16.20;99.90;;;;;;6252415;28;20478;-65
2021/10/06 01:39:33;;;;;;;7.90;6.30;;;16.20;99.90;;;;;;6252331;28;20966;-65
2021/10/06 01:42:36;;;;;;;7.73;5.97;;;16.20;99.90;;;;;;6251863;28;20498;-65
2021/10/06 01:45:42;;;;;;;7.07;5.87;;;16.10;99.90;;;;;;6252997;28;20474;-65
2021/10/06 01:48:45;;;;;;;7.63;6.40;;;16.10;99.90;;;;;;6252787;28;20486;-65
2021/10/06 01:51:51;;;;;;;6.20;5.60;;;16.10;99.90;;;;;;6245741;28;20881;-65
2021/10/06 01:54:54;;;;;;;8.47;5.77;;;16.10;99.90;;;;;;6254644;28;20511;-65
2021/10/06 01:57:59;;;;;;;9.40;5.90;;;16.10;99.90;;;;;;6254770;28;20450;-65
2021/10/06 02:01:02;;;;;;;6.43;5.60;;;16.10;99.90;;;;;;6252218;28;20483;-65
2021/10/06 02:04:05;;;;;;;8.97;6.27;;;16.10;99.90;;;;;;6253461;28;20450;-65
2021/10/06 02:07:10;;;;;;;6.33;5.47;;;16.10;99.90;;;;;;6252993;28;20765;-66
2021/10/06 02:10:13;;;;;;;5.73;5.00;;;16.10;99.90;;;;;;6252469;28;20467;-65
2021/10/06 02:13:17;;;;;;;7.37;6.63;;;16.00;99.90;;;;;;6251980;28;20942;-65
2021/10/06 02:16:20;;;;;;;6.90;6.17;;;16.00;99.90;;;;;;6253317;28;20471;-65
2021/10/06 02:19:23;;;;;;;6.70;6.00;;;16.00;99.90;;;;;;6253862;28;20474;-65
2021/10/06 02:22:28;;;;;;;6.83;5.93;;;16.00;99.90;;;;;;6251136;28;20467;-65
2021/10/06 02:25:31;;;;;;;6.13;5.27;;;15.90;99.90;;;;;;6252660;28;20541;-65
2021/10/06 02:28:34;;;;;;;7.60;6.30;;;15.90;99.90;;;;;;6253296;28;20470;-66
2021/10/06 02:31:37;;;;;;;7.43;6.50;;;15.90;99.90;;;;;;6258907;28;20467;-65
2021/10/06 02:34:40;;;;;;;7.90;7.07;;;15.80;99.90;;;;;;6255546;28;20536;-65
2021/10/06 02:37:45;;;;;;;8.30;6.73;;;15.80;99.90;;;;;;6251984;28;20486;-65
2021/10/06 02:40:48;;;;;;;8.20;6.50;;;15.80;99.90;;;;;;6251348;28;20471;-65
2021/10/06 02:43:51;;;;;;;9.27;6.10;;;15.80;99.90;;;;;;6251486;28;20474;-65
2021/10/06 02:46:54;;;;;;;9.37;7.10;;;15.80;99.90;;;;;;6251338;28;20467;-65
2021/10/06 02:49:57;;;;;;;11.97;7.87;;;15.80;99.90;;;;;;6250845;28;20466;-65
2021/10/06 02:53:02;;;;;;;10.03;8.80;;;15.80;99.90;;;;;;6242011;28;20475;-65
2021/10/06 02:56:05;;;;;;;12.13;11.07;;;15.70;99.90;;;;;;6250661;28;20483;-66
2021/10/06 02:59:08;;;;;;;12.17;10.97;;;15.80;99.90;;;;;;6250634;28;20851;-65
2021/10/06 03:02:12;;;;;;;9.43;8.43;;;15.70;99.90;;;;;;6250380;28;20955;-65
2021/10/06 03:05:15;;;;;;;10.83;7.43;;;15.60;99.90;;;;;;6250941;28;20892;-65
2021/10/06 03:08:19;;;;;;;8.67;7.87;;;15.60;99.90;;;;;;6250281;28;20482;-65
2021/10/06 03:11:23;;;;;;;10.40;9.10;;;15.60;99.90;;;;;;6250299;28;20490;-65
2021/10/06 03:14:26;;;;;;;14.80;8.00;;;15.60;99.90;;;;;;6250736;28;20483;-65
2021/10/06 03:17:29;;;;;;;8.57;7.30;;;15.60;99.90;;;;;;6250459;28;20475;-66
2021/10/06 03:20:32;;;;;;;7.03;6.40;;;15.60;99.90;;;;;;6250297;28;20823;-65
2021/10/06 03:23:36;;;;;;;6.93;6.23;;;15.60;99.90;;;;;;6250676;28;20478;-65
2021/10/06 03:26:40;;;;;;;6.70;6.10;;;15.60;99.90;;;;;;6250401;28;20478;-65
2021/10/06 03:29:43;;;;;;;8.30;7.53;;;15.70;99.90;;;;;;6250173;28;20478;-65
2021/10/06 03:32:46;;;;;;;7.17;6.43;;;15.70;99.90;;;;;;6249851;28;20810;-65
2021/10/06 03:35:49;;;;;;;8.67;7.50;;;15.60;99.90;;;;;;6249265;28;21335;-65
2021/10/06 03:38:53;;;;;;;13.00;8.63;;;15.70;99.90;;;;;;6250350;28;20471;-65
2021/10/06 03:41:57;;;;;;;15.07;9.73;;;15.70;99.90;;;;;;6250041;28;20490;-65
2021/10/06 03:45:00;;;;;;;9.63;8.63;;;15.70;99.90;;;;;;6249906;28;20825;-65
2021/10/06 03:48:03;;;;;;;11.10;7.23;;;15.80;99.90;;;;;;6249754;28;20470;-65
2021/10/06 03:51:06;;;;;;;7.17;6.47;;;15.70;99.90;;;;;;6249619;28;20479;-65
2021/10/06 03:54:11;;;;;;;7.40;6.47;;;15.70;99.90;;;;;;6249858;28;20471;-65
2021/10/06 03:57:14;;;;;;;7.93;7.17;;;15.70;99.90;;;;;;6245274;28;20486;-65
2021/10/06 04:00:17;;;;;;;6.50;5.90;;;15.70;99.90;;;;;;6249337;28;20470;-65
2021/10/06 04:03:21;;;;;;;7.17;6.47;;;15.70;99.90;;;;;;6249537;28;20475;-65
2021/10/06 04:06:24;;;;;;;7.50;6.80;;;15.70;99.90;;;;;;6249516;28;20868;-65
2021/10/06 04:09:29;;;;;;;7.97;6.87;;;15.60;99.90;;;;;;6249629;28;20474;-66
2021/10/06 04:12:32;;;;;;;7.40;6.70;;;15.70;99.90;;;;;;6249587;28;20951;-66
2021/10/06 04:15:35;;;;;;;10.33;6.53;;;15.70;99.90;;;;;;6249432;28;20475;-66
2021/10/06 04:18:38;;;;;;;7.57;6.30;;;15.70;99.90;;;;;;6249981;28;20490;-66
2021/10/06 04:21:41;;;;;;;7.90;7.17;;;15.80;99.90;;;;;;6249358;28;20478;-66
2021/10/06 04:24:46;;;;;;;7.00;6.30;;;15.80;99.90;;;;;;6249315;28;20481;-66
2021/10/06 04:27:49;;;;;;;8.30;7.50;;;15.80;99.90;;;;;;6249059;28;20479;-66
2021/10/06 04:30:52;;;;;;;10.10;7.87;;;15.80;99.90;;;;;;6249248;28;20982;-66
2021/10/06 04:33:55;;;;;;;8.40;7.10;;;15.80;99.90;;;;;;6249481;28;20470;-66
2021/10/06 04:36:59;;;;;;;9.20;7.77;;;15.80;99.90;;;;;;6249730;28;20455;-65
2021/10/06 04:40:04;;;;;;;9.30;7.70;;;15.80;99.90;;;;;;6248981;28;20518;-65
2021/10/06 04:43:11;;;;;;;10.33;7.27;;;15.80;99.90;;;;;;6248989;28;20518;-65
2021/10/06 04:46:16;;;;;;;8.33;6.90;;;15.80;99.90;;;;;;6250987;28;20870;-65
2021/10/06 04:49:19;;;;;;;10.47;6.90;;;15.80;99.90;;;;;;6254343;28;20469;-65
2021/10/06 04:52:22;;;;;;;10.03;7.07;;;15.80;99.90;;;;;;6253859;28;20810;-65
2021/10/06 04:55:27;;;;;;;8.13;6.73;;;15.80;99.90;;;;;;6253931;28;20763;-65
2021/10/06 04:58:30;;;;;;;13.07;6.63;;;15.80;99.90;;;;;;6253955;28;20478;-65
2021/10/06 05:01:33;;;;;;;8.97;7.43;;;15.80;99.90;;;;;;6248867;28;20475;-65
2021/10/06 05:04:37;;;;;;;9.33;7.10;;;15.70;99.90;;;;;;6257304;28;20470;-65
2021/10/06 05:07:40;;;;;;;9.80;7.23;;;15.70;99.90;;;;;;6266807;28;21100;-65
2021/10/06 05:10:44;;;;;;;8.27;7.27;;;15.70;99.90;;;;;;6264465;28;20794;-65
2021/10/06 05:13:47;;;;;;;11.87;8.17;;;15.70;99.90;;;;;;6261649;28;20798;-65
2021/10/06 05:16:52;;;;;;;10.23;7.03;;;15.60;99.90;;;;;;6253877;28;20494;-64
2021/10/06 05:19:56;;;;;;;8.77;6.60;;;15.60;99.90;;;;;;6254313;28;20529;-64
2021/10/06 05:23:00;;;;;;;7.93;6.93;;;15.50;99.90;;;;;;6253936;28;20475;-63
2021/10/06 05:26:04;;;;;;;7.27;6.30;;;15.50;99.90;;;;;;6254325;28;20498;-63
2021/10/06 05:29:08;;;;;;;7.27;6.53;;;15.50;99.90;;;;;;6253483;28;20485;-63
2021/10/06 05:32:11;;;;;;;11.43;6.80;;;15.50;99.90;;;;;;6253697;28;20494;-64
2021/10/06 05:35:14;;;;;;;9.60;6.73;;;15.60;99.90;;;;;;6254662;28;20471;-64
2021/10/06 05:38:17;;;;;;;6.87;6.17;;;15.60;99.90;;;;;;6254123;28;20821;-64
2021/10/06 05:41:22;;;;;;;7.30;6.40;;;15.60;99.90;;;;;;6253509;28;20781;-64
2021/10/06 05:44:25;;;;;;;6.93;6.20;;;15.60;99.90;;;;;;6253629;28;20481;-64
2021/10/06 05:47:28;;;;;;;6.60;6.00;;;15.70;99.90;;;;;;6252962;28;21033;-64
2021/10/06 05:50:31;;;;;;;12.87;5.93;;;15.70;99.90;;;;;;6253790;28;20825;-64
2021/10/06 05:53:34;;;;;;;7.07;6.47;;;15.80;99.90;;;;;;6253191;28;20815;-63
2021/10/06 05:56:39;;;;;;;6.20;5.60;;;15.80;99.90;;;;;;6252944;28;20958;-64
2021/10/06 05:59:42;;;;;;;8.93;5.60;;;15.80;99.90;;;;;;6251868;28;20467;-64
2021/10/06 06:02:46;;;;;;;11.33;6.37;;;15.90;99.90;;;;;;6252516;28;21009;-64
2021/10/06 06:05:49;;;;;;;6.57;5.50;;;16.00;99.90;;;;;;6244923;28;20795;-64
2021/10/06 06:08:52;;;;;;;6.20;5.50;;;16.10;99.90;;;;;;6255047;28;20485;-64
2021/10/06 06:11:56;;;;;;;7.33;5.80;;;16.10;99.90;;;;;;6267020;28;20474;-64
2021/10/06 06:15:00;;;;;;;6.27;5.50;;;16.20;99.90;;;;;;6276692;28;20848;-64
2021/10/06 06:18:03;;;;;;;10.23;4.70;;;16.30;99.90;;;;;;6277644;28;20477;-63
2021/10/06 06:21:06;;;;;;;7.20;5.33;;;16.40;99.90;;;;;;6266315;28;20479;-65
2021/10/06 06:24:09;;;;;;;8.23;5.63;;;16.50;99.90;;;;;;6270640;28;20968;-65
2021/10/06 06:27:14;;;;;;;7.73;5.40;;;16.70;99.90;;;;;;6264283;28;20474;-65
2021/10/06 06:30:17;;;;;;;9.23;5.63;;;16.80;99.90;;;;;;6255448;28;20479;-64
2021/10/06 06:33:20;;;;;;;7.33;5.87;;;16.90;99.90;;;;;;6268346;28;20787;-64
2021/10/06 06:36:24;;;;;;;8.50;6.00;;;17.10;99.90;;;;;;6276286;28;20481;-64
2021/10/06 06:39:27;;;;;;;7.87;5.10;;;17.30;99.90;;;;;;6276140;28;20481;-64
2021/10/06 06:42:31;;;;;;;5.90;5.30;;;17.50;99.90;;;;;;6276222;28;20478;-64
2021/10/06 06:45:35;;;;;;;5.87;4.53;;;17.70;99.90;;;;;;6277280;28;20477;-65
2021/10/06 06:48:38;;;;;;;8.03;4.63;;;17.80;99.90;;;;;;6266160;28;20983;-65
2021/10/06 06:51:41;;;;;;;6.13;5.20;;;17.90;99.90;;;;;;6251999;28;20490;-65
2021/10/06 06:54:44;;;;;;;4.80;4.30;;;18.10;99.90;;;;;;6273619;28;20481;-65
2021/10/06 06:57:48;;;;;;;8.57;5.47;;;18.30;99.90;;;;;;6275413;28;20961;-65
2021/10/06 07:00:52;;;;;;;6.73;5.07;;;18.50;99.90;;;;;;6274845;28;20285;-65
2021/10/06 07:03:55;;;;;;;5.13;4.63;;;18.80;99.90;;;;;;6275641;28;20238;-65
2021/10/06 07:06:59;;;;;;;7.30;5.40;;;19.10;99.90;;;;;;6266615;28;20203;-64
2021/10/06 07:10:02;;;;;;;6.10;4.97;;;19.40;99.90;;;;;;6273445;28;20223;-66
2021/10/06 07:13:06;;;;;;;8.83;5.93;;;19.60;99.90;;;;;;6273467;28;20345;-63
2021/10/06 07:16:09;;;;;;;8.43;5.00;;;19.90;99.90;;;;;;6275446;28;20549;-64
2021/10/06 07:19:13;;;;;;;6.80;5.80;;;20.00;99.90;;;;;;6275749;28;20196;-64
2021/10/06 07:22:17;;;;;;;5.80;5.30;;;20.10;99.60;;;;;;6276703;28;20239;-64
2021/10/06 07:25:20;;;;;;;7.13;5.80;;;20.20;99.20;;;;;;6275578;28;20231;-65
2021/10/06 07:28:25;;;;;;;6.90;6.20;;;20.30;98.70;;;;;;6275368;28;20238;-64
2021/10/06 07:31:29;;;;;;;6.50;4.83;;;20.20;98.80;;;;;;6293187;28;20227;-64
2021/10/06 07:34:32;;;;;;;5.10;4.60;;;20.20;97.90;;;;;;6300151;28;20227;-66
2021/10/06 07:37:36;;;;;;;5.97;5.43;;;20.10;98.10;;;;;;6299998;28;20283;-65
2021/10/06 07:40:39;;;;;;;6.47;5.40;;;19.80;98.50;;;;;;6298796;28;20347;-65
2021/10/06 07:43:43;;;;;;;5.87;5.30;;;19.80;98.10;;;;;;6277282;28;20246;-65
2021/10/06 07:46:47;;;;;;;7.00;5.50;;;19.70;98.40;;;;;;6275274;28;20224;-67
2021/10/06 07:49:50;;;;;;;9.10;6.03;;;19.70;98.60;;;;;;6280287;28;20235;-64
2021/10/06 07:52:54;;;;;;;6.93;5.27;;;19.50;99.70;;;;;;6274532;28;20700;-64
2021/10/06 07:55:57;;;;;;;6.50;5.90;;;19.70;99.90;;;;;;6275269;28;20275;-65
2021/10/06 07:59:02;;;;;;;8.40;7.37;;;19.80;99.40;;;;;;6274242;28;20237;-65
2021/10/06 08:02:05;;;;;;;6.90;6.20;;;19.90;99.40;;;;;;6273308;28;20266;-64
2021/10/06 08:05:09;;;;;;;7.73;6.73;;;19.40;99.80;;;;;;6273576;28;20228;-65
2021/10/06 08:08:12;;;;;;;9.20;7.07;;;19.30;99.90;;;;;;6274559;28;20361;-63
2021/10/06 08:11:15;;;;;;;6.97;6.37;;;18.90;99.90;;;;;;6265322;28;20246;-65
2021/10/06 08:14:20;;;;;;;6.90;6.30;;;18.80;99.90;;;;;;6274522;28;20575;-63
2021/10/06 08:17:24;;;;;;;7.47;6.77;;;19.00;99.90;;;;;;6274252;28;20563;-64
2021/10/06 08:20:32;;;;;;;7.10;6.40;;;19.00;99.90;;;;;;6274459;28;20223;-65
2021/10/06 08:23:35;;;;;;;5.60;5.20;;;19.90;99.90;;;;;;6279793;28;20247;-66
2021/10/06 08:26:40;;;;;;;7.63;5.47;;;21.10;98.80;;;;;;6279394;28;20687;-65
2021/10/06 08:29:44;;;;;;;6.57;5.50;;;21.90;96.30;;;;;;6279065;28;20672;-64
2021/10/06 08:32:47;;;;;;;5.87;5.27;;;22.90;94.80;;;;;;6279327;28;20235;-64
2021/10/06 08:35:50;;;;;;;5.53;5.13;;;24.50;90.90;;;;;;6279516;28;20234;-65
2021/10/06 08:38:53;;;;;;;5.03;4.53;;;25.60;83.90;;;;;;6260309;28;20691;-65
2021/10/06 08:41:57;;;;;;;5.10;4.07;;;27.20;76.80;;;;;;6254080;28;20242;-65
2021/10/06 08:45:06;;;;;;;5.40;4.87;;;29.90;62.60;;;;;;6256006;28;20311;-66
2021/10/06 08:48:11;;;;;;;5.57;4.53;;;31.50;55.00;;;;;;6254002;28;20224;-65
2021/10/06 08:51:14;;;;;;;3.85;3.45;;;31.40;50.90;;;;;;6253948;28;20242;-65
2021/10/06 08:54:22;;;;;;;5.07;4.63;;;31.30;51.20;;;;;;6253721;28;20242;-65
2021/10/06 08:57:25;;;;;;;5.63;5.13;;;31.60;49.30;;;;;;6253808;28;20235;-65
2021/10/06 09:00:31;;;;;;;5.00;4.60;;;30.80;49.90;;;;;;6253672;28;20239;-65
2021/10/06 09:03:35;;;;;;;4.70;4.30;;;30.30;52.10;;;;;;6254160;28;20250;-66
2021/10/06 09:06:41;;;;;;;5.32;4.93;;;31.50;50.10;;;;;;6253859;28;20238;-65
2021/10/06 09:09:44;;;;;;;4.87;4.37;;;30.90;49.00;;;;;;6259768;28;20561;-66
2021/10/06 09:12:55;;;;;;;5.33;4.37;;;29.50;50.60;;;;;;6267725;28;20578;-67
2021/10/06 09:15:59;;;;;;;4.50;4.10;;;27.80;54.60;;;;;;6278277;28;20223;-65
2021/10/06 09:19:03;;;;;;;5.60;4.37;;;26.60;56.30;;;;;;6277680;28;20325;-64
2021/10/06 09:22:12;;;;;;;5.40;5.00;;;25.20;60.10;;;;;;6276378;28;20234;-64
2021/10/06 09:25:16;;;;;;;4.90;4.50;;;24.10;64.00;;;;;;6276217;28;20253;-64
2021/10/06 09:28:21;;;;;;;7.57;5.10;;;23.70;67.00;;;;;;6276583;28;20227;-64
2021/10/06 09:31:28;;;;;;;5.00;4.20;;;24.20;67.10;;;;;;6277547;28;20243;-64
2021/10/06 09:34:32;;;;;;;4.43;4.03;;;25.30;65.20;;;;;;6276874;28;20241;-64
2021/10/06 09:37:36;;;;;;;3.93;3.57;;;26.60;61.30;;;;;;6302490;28;20229;-65
2021/10/06 09:40:40;;;;;;;4.23;3.90;;;26.70;59.00;;;;;;6301685;28;20241;-64
2021/10/06 09:43:43;;;;;;;4.63;3.47;;;26.00;59.50;;;;;;6303210;28;20229;-64
2021/10/06 09:46:50;;;;;;;4.83;4.30;;;24.90;62.30;;;;;;6303190;28;20219;-64
2021/10/06 09:49:56;;;;;;;4.63;4.23;;;23.80;65.50;;;;;;6301607;28;20227;-65
2021/10/06 09:53:07;;;;;;;5.00;4.60;;;22.70;69.70;;;;;;6302419;28;20238;-64
2021/10/06 09:56:11;;;;;;;4.73;4.23;;;22.00;72.60;;;;;;6302562;28;20231;-64
2021/10/06 09:59:15;;;;;;;4.57;4.17;;;21.50;75.50;;;;;;6302103;28;20566;-64
2021/10/06 10:02:20;;;;;;;5.27;4.77;;;21.00;77.90;;;;;;6301836;28;20238;-64
2021/10/06 10:05:23;;;;;;;5.20;4.70;;;20.40;81.40;;;;;;6301749;28;20550;-64
2021/10/06 10:08:27;;;;;;;4.80;3.57;;;20.20;83.70;;;;;;6302151;28;20230;-64
2021/10/06 10:11:30;;;;;;;4.70;4.30;;;20.10;85.30;;;;;;6297399;28;20230;-64
2021/10/06 10:14:33;;;;;;;4.07;3.77;;;19.90;86.50;;;;;;6276661;28;20235;-64
2021/10/06 10:17:38;;;;;;;4.70;4.00;;;19.80;87.80;;;;;;6277247;28;20223;-64
2021/10/06 10:20:44;;;;;;;4.03;3.73;;;19.70;89.10;;;;;;6267304;28;20243;-64
2021/10/06 10:23:47;;;;;;;4.90;4.10;;;19.60;90.00;;;;;;6276941;28;20235;-64
2021/10/06 10:26:59;;;;;;;5.30;4.80;;;19.50;90.10;;;;;;6276572;28;20542;-64
2021/10/06 10:30:05;;;;;;;5.57;4.63;;;19.40;90.60;;;;;;6276417;28;20230;-64
2021/10/06 10:33:10;;;;;;;5.30;4.20;;;19.30;90.90;;;;;;6276418;28;20560;-64
2021/10/06 10:36:47;;;;;;;4.67;4.27;;;19.30;91.20;;;;;;6276695;28;20255;-64
2021/10/06 10:39:52;;;;;;;3.93;3.67;;;19.30;91.50;;;;;;6273732;28;20231;-64
2021/10/06 10:42:59;;;;;;;4.37;3.90;;;19.10;92.10;;;;;;6251281;28;20262;-65
2021/10/06 10:46:13;;;;;;;4.10;3.23;;;19.20;92.50;;;;;;6250805;28;20235;-64
2021/10/06 10:49:19;;;;;;;4.53;3.80;;;19.10;92.70;;;;;;6252196;28;20243;-64
2021/10/06 10:52:47;;;;;;;5.20;4.53;;;19.20;93.20;;;;;;6251372;28;20228;-64
2021/10/06 10:55:52;;;;;;;1.33;1.13;;;19.10;93.30;;;;;;6251129;28;20232;-64
2021/10/06 10:59:05;;;;;;;3.73;0.90;;;18.90;90.80;;;;;;6251071;28;20251;-64
2021/10/06 11:02:16;;;;;;;1.10;0.87;;;18.30;91.40;;;;;;6250680;28;20235;-63
2021/10/06 11:05:21;;;;;;;1.00;0.63;;;17.90;93.00;;;;;;6251131;28;20236;-64
2021/10/06 11:08:26;;;;;;;1.27;0.70;;;17.40;93.90;;;;;;6251108;28;20486;-63
2021/10/06 11:11:31;;;;;;;1.83;0.53;;;16.90;95.60;;;;;;6254702;28;20473;-64
2021/10/06 11:14:35;;;;;;;1.43;0.90;;;16.60;96.70;;;;;;6275297;28;20462;-64
2021/10/06 11:18:18;;;;;;;0.80;0.70;;;16.10;98.10;;;;;;6276838;28;20481;-64
2021/10/06 11:21:37;;;;;;;1.80;0.53;;;15.60;99.40;;;;;;6250755;28;20577;-63
2021/10/06 11:24:40;;;;;;;1.03;0.63;;;15.20;99.90;;;;;;6241524;28;20479;-64
2021/10/06 11:27:47;;;;;;;0.67;0.40;;;15.00;99.90;;;;;;6250518;28;20486;-64
2021/10/06 11:30:54;;;;;;;2.03;0.90;;;14.70;99.90;;;;;;6251331;28;20541;-63
2021/10/06 11:33:59;;;;;;;0.83;0.47;;;14.40;99.90;;;;;;6249828;28;20511;-64
2021/10/06 11:37:04;;;;;;;1.20;0.70;;;14.10;99.90;;;;;;6250338;28;20907;-63
2021/10/06 11:40:10;;;;;;;1.47;0.90;;;13.80;99.90;;;;;;6249748;28;20529;-66
2021/10/06 11:43:14;;;;;;;2.70;0.83;;;13.50;99.90;;;;;;6254585;28;20447;-65
2021/10/06 11:46:20;;;;;;;3.73;0.93;;;13.10;99.90;;;;;;6261415;28;20802;-67
2021/10/06 11:49:23;;;;;;;2.37;0.87;;;13.00;99.90;;;;;;6250574;28;20478;-63
2021/10/06 11:52:28;;;;;;;0.80;0.67;;;13.00;99.90;;;;;;6252370;28;20469;-64
2021/10/06 11:55:31;;;;;;;2.63;0.90;;;13.00;99.90;;;;;;6253509;28;20487;-62
2021/10/06 11:58:35;;;;;;;1.30;0.80;;;13.00;99.90;;;;;;6251465;28;20856;-67
2021/10/06 12:01:39;;;;;;;1.37;1.03;;;13.10;99.90;;;;;;6250925;28;20466;-64
2021/10/06 12:04:44;;;;;;;3.90;1.30;;;13.20;99.90;;;;;;6263798;28;20458;-66
2021/10/06 12:07:50;;;;;;;1.40;0.90;;;13.10;99.90;;;;;;6276213;28;20484;-67
2021/10/06 12:10:53;;;;;;;4.20;1.20;;;13.10;99.90;;;;;;6278194;28;20489;-65
2021/10/06 12:13:56;;;;;;;3.60;2.03;;;13.00;99.90;;;;;;6277601;28;20481;-66
2021/10/06 12:17:08;;;;;;;3.33;1.93;;;13.00;99.90;;;;;;6277539;28;20466;-66
2021/10/06 12:20:13;;;;;;;4.73;2.37;;;13.00;99.90;;;;;;6278059;28;20481;-66
2021/10/06 12:23:25;;;;;;;2.43;1.40;;;13.00;99.90;;;;;;6276280;28;20827;-66
2021/10/06 12:26:33;;;;;;;2.10;1.90;;;13.00;99.90;;;;;;6271300;28;20470;-65
2021/10/06 12:29:36;;;;;;;2.00;1.10;;;13.10;99.90;;;;;;6275190;28;20950;-65
2021/10/06 12:32:41;;;;;;;3.50;1.20;;;13.20;99.90;;;;;;6274963;28;20493;-66
2021/10/06 12:35:46;;;;;;;1.50;1.17;;;13.20;99.90;;;;;;6274805;28;20924;-66
2021/10/06 12:38:51;;;;;;;2.40;0.80;;;13.30;99.90;;;;;;6274421;28;20989;-65
2021/10/06 12:41:56;;;;;;;4.40;0.80;;;13.40;99.90;;;;;;6274574;28;20478;-66
2021/10/06 12:45:10;;;;;;;1.37;0.80;;;13.40;99.90;;;;;;6273998;28;20477;-63
2021/10/06 12:48:13;;;;;;;1.57;0.70;;;13.50;99.90;;;;;;6274173;28;20470;-64
2021/10/06 12:51:18;;;;;;;0.77;0.70;;;13.60;99.90;;;;;;6282527;28;20530;-67
2021/10/06 12:54:24;;;;;;;0.80;0.77;;;13.60;99.90;;;;;;6298403;28;20474;-64
2021/10/06 12:57:27;;;;;;;2.40;0.50;;;13.60;99.90;;;;;;6299760;28;20949;-65
2021/10/06 13:00:31;;;;;;;0.83;0.50;;;13.60;99.90;;;;;;6298360;28;20488;-64
2021/10/06 13:03:34;;;;;;;0.70;0.60;;;13.60;99.90;;;;;;6298617;28;20465;-63
2021/10/06 13:06:39;;;;;;;1.60;0.60;;;13.70;99.90;;;;;;6299413;28;20469;-66
2021/10/06 13:09:45;;;;;;;2.23;0.70;;;13.60;99.90;;;;;;6303418;28;20487;-66
2021/10/06 13:12:48;;;;;;;0.93;0.50;;;13.70;99.90;;;;;;6289023;28;20474;-66
2021/10/06 13:15:53;;;;;;;1.17;0.60;;;13.60;99.90;;;;;;6279845;28;20965;-65
2021/10/06 13:18:59;;;;;;;0.60;0.50;;;13.70;99.90;;;;;;6277994;28;20577;-66
2021/10/06 13:22:03;;;;;;;2.50;0.70;;;13.90;99.90;;;;;;6277781;28;20957;-65
2021/10/06 13:25:08;;;;;;;1.43;1.00;;;13.90;99.90;;;;;;6274963;28;20442;-64
2021/10/06 13:28:11;;;;;;;2.20;1.00;;;14.00;99.90;;;;;;6278258;28;20446;-66
2021/10/06 13:31:15;;;;;;;1.20;0.90;;;14.10;99.90;;;;;;6277888;28;20466;-65
2021/10/06 13:34:18;;;;;;;1.10;0.60;;;14.20;99.90;;;;;;6278048;28;20487;-68
2021/10/06 13:37:22;;;;;;;0.70;0.70;;;14.20;99.90;;;;;;6277142;28;20462;-65
2021/10/06 13:40:26;;;;;;;1.57;0.90;;;14.30;99.90;;;;;;6277228;28;20485;-65
2021/10/06 13:43:29;;;;;;;1.70;0.67;;;14.40;99.90;;;;;;6266669;28;20466;-67
2021/10/06 13:46:33;;;;;;;0.90;0.70;;;14.40;99.90;;;;;;6278545;28;20480;-63
2021/10/06 13:49:37;;;;;;;0.60;0.50;;;14.50;99.90;;;;;;6267837;28;20485;-66
2021/10/06 13:52:40;;;;;;;0.80;0.60;;;14.60;99.90;;;;;;6276854;28;20974;-66
2021/10/06 13:55:44;;;;;;;0.90;0.80;;;14.60;99.90;;;;;;6277739;28;20470;-66
2021/10/06 13:58:47;;;;;;;0.93;0.57;;;14.70;99.90;;;;;;6276644;28;20477;-67
2021/10/06 14:01:51;;;;;;;0.93;0.70;;;14.70;99.90;;;;;;6277480;28;20485;-67
2021/10/06 14:04:54;;;;;;;1.00;0.67;;;14.70;99.90;;;;;;6276700;28;21000;-67
2021/10/06 14:07:57;;;;;;;1.30;0.97;;;14.70;99.90;;;;;;6276276;28;20844;-67
2021/10/06 14:11:03;;;;;;;0.93;0.60;;;14.70;99.90;;;;;;6277166;28;20485;-67
2021/10/06 14:14:06;;;;;;;0.83;0.80;;;14.80;99.90;;;;;;6252253;28;20482;-67
2021/10/06 14:17:09;;;;;;;1.20;0.70;;;14.90;99.90;;;;;;6254421;28;20487;-67
2021/10/06 14:20:13;;;;;;;0.50;0.50;;;14.90;99.90;;;;;;6275922;28;20470;-68
2021/10/06 14:23:16;;;;;;;0.73;0.73;;;14.90;99.90;;;;;;6276804;28;20467;-66
2021/10/06 14:26:20;;;;;;;0.80;0.70;;;15.00;99.90;;;;;;6276762;28;20496;-67
2021/10/06 14:29:25;;;;;;;0.60;0.60;;;15.00;99.90;;;;;;6276329;28;20815;-67
2021/10/06 14:32:32;;;;;;;0.50;0.40;;;14.90;99.90;;;;;;6276216;28;20488;-68
2021/10/06 14:35:35;;;;;;;0.90;0.50;;;14.90;99.90;;;;;;6267148;28;20917;-67
2021/10/06 14:38:39;;;;;;;1.20;0.60;;;14.80;99.90;;;;;;6276252;28;20484;-63
2021/10/06 14:41:43;;;;;;;0.97;0.60;;;14.80;99.90;;;;;;6276090;28;20492;-63
2021/10/06 14:44:46;;;;;;;1.70;0.67;;;14.80;99.90;;;;;;6276316;28;20974;-63
2021/10/06 14:47:51;;;;;;;1.30;1.10;;;14.90;99.90;;;;;;6276075;28;20466;-63
2021/10/06 14:50:54;;;;;;;0.90;0.80;;;14.90;99.90;;;;;;6272279;28;20478;-63
2021/10/06 14:53:57;;;;;;;1.10;1.00;;;14.80;99.90;;;;;;6275911;28;20493;-63
2021/10/06 14:57:05;;;;;;;2.37;0.90;;;14.70;99.90;;;;;;6275583;28;20463;-63
2021/10/06 15:00:12;;;;;;;3.70;0.90;;;14.70;99.90;;;;;;6275617;28;20561;-63
2021/10/06 15:03:16;;;;;;;0.80;0.80;;;14.60;99.90;;;;;;6275516;28;20462;-65
2021/10/06 15:06:19;;;;;;;1.13;0.60;;;14.60;99.90;;;;;;6275462;28;20473;-62
2021/10/06 15:09:22;;;;;;;0.50;0.50;;;14.60;99.90;;;;;;6275598;28;20461;-63
2021/10/06 15:12:27;;;;;;;1.07;0.97;;;14.50;99.90;;;;;;6274632;28;20466;-62
2021/10/06 15:15:30;;;;;;;1.87;0.70;;;14.50;99.90;;;;;;6275309;28;20486;-62
2021/10/06 15:18:33;;;;;;;0.90;0.80;;;14.40;99.90;;;;;;6274804;28;20494;-66
2021/10/06 15:21:37;;;;;;;0.93;0.70;;;14.30;99.90;;;;;;6275193;28;20980;-66
2021/10/06 15:24:40;;;;;;;0.60;0.40;;;14.20;99.90;;;;;;6274722;28;20470;-67
2021/10/06 15:27:45;;;;;;;0.70;0.60;;;14.20;99.90;;;;;;6275596;28;20486;-66
2021/10/06 15:30:48;;;;;;;1.10;0.80;;;14.20;99.90;;;;;;6275074;28;20485;-68
2021/10/06 15:33:51;;;;;;;0.70;0.60;;;14.20;99.90;;;;;;6275250;28;20482;-68
2021/10/06 15:36:54;;;;;;;1.70;1.20;;;14.20;99.90;;;;;;6274642;28;20474;-67
2021/10/06 15:39:58;;;;;;;0.70;0.47;;;14.20;99.90;;;;;;6266251;28;20485;-67
2021/10/06 15:43:02;;;;;;;0.90;0.80;;;14.20;99.90;;;;;;6274395;28;20488;-66
2021/10/06 15:46:05;;;;;;;0.50;0.50;;;14.20;99.90;;;;;;6265594;28;20466;-67
2021/10/06 15:49:09;;;;;;;0.87;0.87;;;14.20;99.90;;;;;;6270146;28;20895;-67
2021/10/06 15:52:12;;;;;;;0.87;0.70;;;14.20;99.90;;;;;;6275019;28;20520;-67
2021/10/06 15:55:17;;;;;;;0.90;0.67;;;14.20;99.90;;;;;;6276096;28;20493;-66
2021/10/06 15:58:21;;;;;;;0.70;0.60;;;14.30;99.90;;;;;;6274853;28;20454;-64